Terminal Aerodrome Forecast
Issued by NWS

Home | Current Version | Previous Version | Text Only | Print | Product List | Glossary On
Versions: 1 2 3 4 5 6 7 8 9 10 11 12 13 14 15 16 17 18 19 20 21 22 23 24
000
FTUS45 KSLC 270527
TAFSGU
TAF
KSGU 270527Z 2706/2806 12005KT P6SM BKN200
     FM271700 21010G17KT P6SM BKN120
     FM272100 27018G25KT P6SM BKN100
     FM280200 24009KT P6SM SCT060 BKN100=

USA.gov is the U.S. government's official web portal to all federal, state and local government web resources and services.